Time;durP1;ratioP1;P1;durP2;ratioP2;P2;SDS_P1;SDS_P2;PMS_P1;PMS_P2;Temp;Humidity;BMP_temperature;BMP_pressure;BME280_temperature;BME280_humidity;BME280_pressure;Samples;Min_cycle;Max_cycle;Signal;HPM_P1;HPM_P2
2021/11/13 00:00:18;;;;;;;6.23;5.63;;;3.20;99.90;;;;;;5072949;28;20479;-56
2021/11/13 00:02:45;;;;;;;10.27;6.40;;;3.20;99.90;;;;;;5071782;28;20457;-57
2021/11/13 00:05:13;;;;;;;13.10;7.90;;;3.30;99.90;;;;;;5072185;28;20848;-54
2021/11/13 00:07:40;;;;;;;11.67;6.57;;;3.20;99.90;;;;;;5072868;28;20545;-55
2021/11/13 00:10:13;;;;;;;9.10;6.10;;;3.20;99.90;;;;;;5072879;28;20512;-57
2021/11/13 00:12:40;;;;;;;5.80;4.60;;;3.10;99.90;;;;;;5071214;28;20433;-57
2021/11/13 00:15:09;;;;;;;10.27;7.00;;;3.00;99.90;;;;;;5072627;28;20428;-54
2021/11/13 00:17:36;;;;;;;10.10;6.37;;;2.90;99.90;;;;;;5072479;28;20881;-56
2021/11/13 00:20:05;;;;;;;8.13;4.90;;;3.10;99.90;;;;;;5073133;28;20482;-55
2021/11/13 00:22:32;;;;;;;10.53;7.20;;;3.20;99.90;;;;;;5073736;28;20458;-55
2021/11/13 00:24:59;;;;;;;13.03;6.57;;;3.30;99.90;;;;;;5072247;28;20569;-57
2021/11/13 00:27:28;;;;;;;15.10;7.10;;;3.40;99.90;;;;;;5071181;28;20549;-57
2021/11/13 00:29:55;;;;;;;11.50;6.93;;;3.30;99.90;;;;;;5070597;28;20450;-57
2021/11/13 00:32:21;;;;;;;9.33;5.20;;;3.30;99.90;;;;;;5071387;28;20720;-56
2021/11/13 00:34:49;;;;;;;10.27;7.03;;;3.30;99.90;;;;;;5071614;28;20425;-56
2021/11/13 00:37:16;;;;;;;12.23;8.80;;;3.50;99.90;;;;;;5071653;28;20489;-56
2021/11/13 00:39:43;;;;;;;9.10;4.97;;;3.70;99.90;;;;;;5072482;28;20493;-57
2021/11/13 00:42:10;;;;;;;9.67;6.17;;;3.40;99.90;;;;;;5072831;28;20458;-57
2021/11/13 00:44:38;;;;;;;11.40;6.40;;;3.40;99.90;;;;;;5073238;28;20490;-55
2021/11/13 00:47:06;;;;;;;12.73;5.80;;;3.40;99.90;;;;;;5072806;28;20522;-58
2021/11/13 00:49:33;;;;;;;14.80;7.70;;;3.10;99.90;;;;;;5072346;28;20752;-57
2021/11/13 00:52:00;;;;;;;9.13;6.10;;;3.00;99.90;;;;;;5072382;28;20472;-57
2021/11/13 00:54:27;;;;;;;12.87;5.70;;;2.90;99.90;;;;;;5072208;28;20447;-56
2021/11/13 00:56:54;;;;;;;11.17;5.73;;;2.80;99.90;;;;;;5072639;28;20454;-58
2021/11/13 00:59:21;;;;;;;8.97;4.97;;;2.90;99.90;;;;;;5071740;28;20533;-56
2021/11/13 01:01:49;;;;;;;10.23;5.73;;;3.00;99.90;;;;;;5071723;28;20538;-57
2021/11/13 01:04:16;;;;;;;7.20;3.63;;;3.20;99.90;;;;;;5070882;28;20561;-57
2021/11/13 01:06:45;;;;;;;8.30;4.60;;;3.40;99.90;;;;;;5072676;27;20581;-56
2021/11/13 01:09:12;;;;;;;15.57;5.40;;;3.20;99.90;;;;;;5072493;27;20447;-57
2021/11/13 01:11:39;;;;;;;11.60;5.50;;;2.90;99.90;;;;;;5072791;27;20481;-57
2021/11/13 01:14:06;;;;;;;7.87;4.70;;;2.70;99.90;;;;;;5072042;27;20466;-57
2021/11/13 01:16:33;;;;;;;10.77;5.40;;;2.80;99.90;;;;;;5070535;28;20481;-57
2021/11/13 01:19:02;;;;;;;10.10;5.90;;;3.00;99.90;;;;;;5072625;27;20464;-57
2021/11/13 01:21:29;;;;;;;8.57;3.53;;;3.00;99.90;;;;;;5072601;27;20413;-61
2021/11/13 01:23:56;;;;;;;9.50;5.63;;;2.80;99.90;;;;;;5073580;27;20932;-57
2021/11/13 01:26:23;;;;;;;9.47;5.80;;;2.80;99.90;;;;;;5076487;28;20529;-57
2021/11/13 01:28:50;;;;;;;12.47;5.67;;;2.90;99.90;;;;;;5075961;28;20446;-56
2021/11/13 01:31:17;;;;;;;9.07;4.03;;;3.00;99.90;;;;;;5076027;28;20478;-57
2021/11/13 01:33:45;;;;;;;7.70;4.10;;;3.20;99.90;;;;;;5075653;28;20454;-56
2021/11/13 01:36:14;;;;;;;10.73;6.37;;;3.40;99.90;;;;;;5075741;28;20536;-58
2021/11/13 01:38:42;;;;;;;7.03;3.77;;;3.50;99.90;;;;;;5076279;27;20910;-55
2021/11/13 01:41:10;;;;;;;9.17;5.17;;;3.60;99.90;;;;;;5074887;28;20485;-56
2021/11/13 01:43:39;;;;;;;6.47;4.97;;;3.70;99.90;;;;;;5075822;28;20469;-57
2021/11/13 01:46:08;;;;;;;14.00;5.60;;;3.60;99.90;;;;;;5075960;28;20969;-57
2021/11/13 01:48:35;;;;;;;7.60;4.10;;;3.60;99.90;;;;;;5075999;27;20481;-57
2021/11/13 01:51:03;;;;;;;7.90;4.50;;;3.70;99.90;;;;;;5076600;27;20417;-56
2021/11/13 01:53:32;;;;;;;6.93;4.43;;;3.70;99.90;;;;;;5075780;27;20738;-56
2021/11/13 01:55:59;;;;;;;7.20;2.80;;;3.70;99.90;;;;;;5075704;27;20499;-57
2021/11/13 01:58:26;;;;;;;12.57;4.70;;;3.80;99.90;;;;;;5076009;27;20766;-57
2021/11/13 02:00:56;;;;;;;9.07;5.40;;;3.80;99.90;;;;;;5075824;27;20533;-58
2021/11/13 02:03:25;;;;;;;10.17;4.30;;;3.70;99.90;;;;;;5075428;28;20596;-57
2021/11/13 02:05:52;;;;;;;6.50;3.47;;;3.70;99.90;;;;;;5074459;27;20504;-56
2021/11/13 02:08:20;;;;;;;6.60;3.77;;;3.50;99.90;;;;;;5074608;28;20553;-57
2021/11/13 02:10:49;;;;;;;7.10;3.60;;;3.30;99.90;;;;;;5074386;27;20821;-57
2021/11/13 02:13:15;;;;;;;8.17;4.37;;;3.20;99.90;;;;;;5074665;28;20472;-57
2021/11/13 02:15:42;;;;;;;7.03;4.70;;;3.00;99.90;;;;;;5073623;27;20471;-57
2021/11/13 02:18:10;;;;;;;10.77;3.90;;;2.90;99.90;;;;;;5072667;27;20596;-56
2021/11/13 02:20:39;;;;;;;8.30;4.03;;;2.90;99.90;;;;;;5072270;27;20446;-57
2021/11/13 02:23:09;;;;;;;5.33;3.17;;;3.00;99.90;;;;;;5071434;28;20549;-57
2021/11/13 02:25:36;;;;;;;7.80;4.90;;;2.90;99.90;;;;;;5073047;27;20577;-58
2021/11/13 02:28:06;;;;;;;7.50;4.63;;;2.60;99.90;;;;;;5072503;27;20802;-55
2021/11/13 02:30:33;;;;;;;5.73;3.33;;;2.60;99.90;;;;;;5073686;28;20499;-56
2021/11/13 02:33:00;;;;;;;6.70;4.30;;;2.60;99.90;;;;;;5075154;27;20515;-57
2021/11/13 02:35:30;;;;;;;6.90;3.67;;;2.70;99.90;;;;;;5074709;27;20477;-57
2021/11/13 02:38:09;;;;;;;10.37;4.00;;;2.90;99.90;;;;;;5074887;27;20458;-57
2021/11/13 02:40:36;;;;;;;11.23;4.80;;;2.80;99.90;;;;;;5075241;27;20470;-57
2021/11/13 02:43:03;;;;;;;8.40;4.77;;;2.60;99.90;;;;;;5075360;27;20485;-57
2021/11/13 02:45:32;;;;;;;9.60;4.97;;;2.40;99.90;;;;;;5074822;27;20818;-57
2021/11/13 02:48:02;;;;;;;7.17;4.10;;;2.20;99.90;;;;;;5075091;28;20881;-56
2021/11/13 02:50:29;;;;;;;8.70;3.10;;;2.20;99.90;;;;;;5074015;27;20912;-57
2021/11/13 02:53:00;;;;;;;7.00;2.67;;;2.30;99.90;;;;;;5074891;27;20502;-57
2021/11/13 02:55:28;;;;;;;7.30;3.80;;;2.40;99.90;;;;;;5074723;28;20503;-57
2021/11/13 02:57:56;;;;;;;12.20;5.67;;;2.60;99.90;;;;;;5074671;27;20459;-58
2021/11/13 03:00:26;;;;;;;6.37;3.90;;;2.90;99.90;;;;;;5074747;27;20446;-57
2021/11/13 03:02:53;;;;;;;8.63;4.93;;;2.80;99.90;;;;;;5074611;27;20567;-57
2021/11/13 03:05:23;;;;;;;7.73;3.57;;;2.70;99.90;;;;;;5074469;28;20482;-57
2021/11/13 03:07:50;;;;;;;9.53;4.27;;;2.70;99.90;;;;;;5074066;28;20943;-56
2021/11/13 03:10:19;;;;;;;7.07;4.17;;;2.60;99.90;;;;;;5073721;28;20460;-57
2021/11/13 03:12:46;;;;;;;5.73;3.50;;;2.60;99.90;;;;;;5072969;28;20463;-57
2021/11/13 03:15:16;;;;;;;7.90;3.87;;;2.60;99.90;;;;;;5074524;28;20462;-57
2021/11/13 03:17:44;;;;;;;6.07;2.23;;;2.50;99.90;;;;;;5074231;28;20482;-55
2021/11/13 03:20:14;;;;;;;5.40;3.20;;;2.30;99.90;;;;;;5074356;28;20499;-55
2021/11/13 03:22:41;;;;;;;12.30;3.83;;;2.30;99.90;;;;;;5073500;28;20478;-57
2021/11/13 03:25:10;;;;;;;8.10;3.20;;;2.10;99.90;;;;;;5071775;28;20513;-57
2021/11/13 03:27:39;;;;;;;7.30;3.77;;;2.00;99.90;;;;;;5073394;28;20458;-55
2021/11/13 03:30:08;;;;;;;5.27;4.40;;;1.90;99.90;;;;;;5073141;27;20590;-57
2021/11/13 03:32:35;;;;;;;13.10;4.80;;;1.80;99.90;;;;;;5073382;28;20458;-57
2021/11/13 03:35:05;;;;;;;5.13;2.30;;;1.80;99.90;;;;;;5073603;28;20466;-56
2021/11/13 03:37:35;;;;;;;10.43;3.57;;;1.80;99.90;;;;;;5072638;28;20973;-55
2021/11/13 03:40:03;;;;;;;7.50;5.07;;;2.10;99.90;;;;;;5074021;28;20443;-56
2021/11/13 03:42:32;;;;;;;5.70;2.97;;;2.00;99.90;;;;;;5074086;28;20884;-57
2021/11/13 03:45:01;;;;;;;6.97;3.13;;;1.90;99.90;;;;;;5080282;28;20499;-57
2021/11/13 03:47:28;;;;;;;5.43;2.67;;;2.00;99.90;;;;;;5072876;28;20920;-57
2021/11/13 03:49:55;;;;;;;5.30;3.20;;;2.00;99.90;;;;;;5073857;28;20518;-57
2021/11/13 03:52:22;;;;;;;4.43;2.07;;;2.00;99.90;;;;;;5092239;27;20442;-56
2021/11/13 03:55:08;;;;;;;6.83;3.13;;;1.90;99.90;;;;;;5074466;27;20481;-54
2021/11/13 03:57:35;;;;;;;6.47;3.63;;;1.80;99.90;;;;;;5073675;28;20455;-56
2021/11/13 04:00:04;;;;;;;7.70;4.37;;;2.00;99.90;;;;;;5088696;27;20529;-57
2021/11/13 04:02:31;;;;;;;5.43;3.10;;;2.10;99.90;;;;;;5073658;28;20483;-57
2021/11/13 04:04:58;;;;;;;5.10;3.27;;;2.10;99.90;;;;;;5074234;28;20506;-56
2021/11/13 04:07:25;;;;;;;6.23;3.43;;;2.20;99.90;;;;;;5072710;28;20832;-56
2021/11/13 04:09:52;;;;;;;8.53;3.93;;;2.30;99.90;;;;;;5072749;28;20451;-55
2021/11/13 04:12:19;;;;;;;5.53;3.37;;;2.30;99.90;;;;;;5073143;28;20546;-56
2021/11/13 04:14:46;;;;;;;5.73;3.67;;;2.30;99.90;;;;;;5073343;28;20801;-56
2021/11/13 04:17:15;;;;;;;7.37;5.07;;;2.30;99.90;;;;;;5073691;27;20501;-57
2021/11/13 04:19:42;;;;;;;9.33;5.20;;;2.40;99.90;;;;;;5073109;28;20919;-55
2021/11/13 04:22:09;;;;;;;6.97;3.60;;;2.40;99.90;;;;;;5072912;27;20462;-56
2021/11/13 04:24:36;;;;;;;5.90;4.40;;;2.50;99.90;;;;;;5072954;28;20569;-57
2021/11/13 04:27:03;;;;;;;7.50;3.73;;;2.50;99.90;;;;;;5072889;28;20481;-52
2021/11/13 04:29:31;;;;;;;8.90;3.93;;;2.60;99.90;;;;;;5073251;28;20737;-57
2021/11/13 04:31:58;;;;;;;4.40;3.80;;;2.60;99.90;;;;;;5073068;28;20462;-57
2021/11/13 04:34:28;;;;;;;5.90;3.43;;;2.70;99.90;;;;;;5073142;28;20538;-56
2021/11/13 04:36:59;;;;;;;9.37;4.60;;;2.80;99.90;;;;;;5073611;28;20482;-53
2021/11/13 04:39:27;;;;;;;4.93;3.77;;;2.80;99.90;;;;;;5073414;28;20451;-57
2021/11/13 04:41:55;;;;;;;8.03;5.00;;;3.00;99.90;;;;;;5073101;28;20478;-57
2021/11/13 04:44:22;;;;;;;7.27;4.73;;;3.00;99.90;;;;;;5073150;28;20506;-55
2021/11/13 04:46:49;;;;;;;9.43;4.87;;;2.90;99.90;;;;;;5073104;28;20451;-57
2021/11/13 04:49:17;;;;;;;7.30;3.90;;;2.80;99.90;;;;;;5072996;28;20447;-57
2021/11/13 04:51:45;;;;;;;8.20;4.37;;;2.80;99.90;;;;;;5073278;28;20501;-57
2021/11/13 04:54:12;;;;;;;8.17;4.20;;;2.90;99.90;;;;;;5072286;28;20927;-57
2021/11/13 04:56:39;;;;;;;7.23;4.10;;;2.90;99.90;;;;;;5072650;28;20478;-55
2021/11/13 04:59:07;;;;;;;7.70;4.43;;;3.00;99.90;;;;;;5072874;28;20426;-58
2021/11/13 05:01:34;;;;;;;9.17;5.57;;;3.10;99.90;;;;;;5072357;28;20545;-55
2021/11/13 05:04:01;;;;;;;8.57;4.00;;;3.10;99.90;;;;;;5072642;28;20507;-57
2021/11/13 05:06:29;;;;;;;6.20;4.13;;;3.10;99.90;;;;;;5071845;28;20453;-57
2021/11/13 05:08:58;;;;;;;7.87;3.47;;;3.20;99.90;;;;;;5071685;28;20521;-57
2021/11/13 05:11:25;;;;;;;6.70;3.20;;;3.30;99.90;;;;;;5071415;28;20903;-57
2021/11/13 05:13:52;;;;;;;6.77;3.93;;;3.50;99.90;;;;;;5070405;28;20503;-58
2021/11/13 05:16:19;;;;;;;7.03;4.50;;;3.50;99.90;;;;;;5070981;28;20516;-57
2021/11/13 05:18:47;;;;;;;5.50;4.20;;;3.60;99.90;;;;;;5071649;28;20821;-57
2021/11/13 05:21:14;;;;;;;9.53;3.20;;;3.50;99.90;;;;;;5071518;28;20961;-56
2021/11/13 05:23:42;;;;;;;8.47;3.80;;;3.50;99.90;;;;;;5071502;28;20931;-56
2021/11/13 05:26:11;;;;;;;5.70;4.33;;;3.50;99.90;;;;;;5071330;28;20453;-57
2021/11/13 05:28:43;;;;;;;5.60;4.03;;;3.50;99.90;;;;;;5072713;28;20738;-57
2021/11/13 05:31:10;;;;;;;9.70;4.67;;;3.40;99.90;;;;;;5073009;28;20433;-57
2021/11/13 05:33:38;;;;;;;4.10;3.07;;;3.40;99.90;;;;;;5072713;28;20454;-57
2021/11/13 05:36:05;;;;;;;8.10;3.83;;;3.40;99.90;;;;;;5072429;28;20499;-52
2021/11/13 05:38:32;;;;;;;5.90;4.03;;;3.40;99.90;;;;;;5072441;28;20454;-57
2021/11/13 05:40:59;;;;;;;7.73;4.03;;;3.30;99.90;;;;;;5072366;28;20468;-55
2021/11/13 05:43:28;;;;;;;5.60;3.17;;;3.30;99.90;;;;;;5072579;28;20456;-57
2021/11/13 05:45:55;;;;;;;7.03;3.40;;;3.40;99.90;;;;;;5072631;28;20461;-57
2021/11/13 05:48:22;;;;;;;8.87;5.40;;;3.50;99.90;;;;;;5072674;28;20505;-57
2021/11/13 05:50:50;;;;;;;6.40;4.13;;;3.80;99.90;;;;;;5070824;27;20464;-57
2021/11/13 05:53:17;;;;;;;4.50;3.00;;;3.70;99.90;;;;;;5070638;28;20557;-57
2021/11/13 05:55:44;;;;;;;5.67;4.70;;;3.70;99.90;;;;;;5070798;28;20816;-58
2021/11/13 05:58:11;;;;;;;5.93;3.33;;;3.60;99.90;;;;;;5070837;28;20429;-56
2021/11/13 06:00:39;;;;;;;8.67;3.27;;;3.50;99.90;;;;;;5070757;28;20546;-58
2021/11/13 06:03:07;;;;;;;7.50;3.37;;;3.50;99.90;;;;;;5070655;28;20499;-57
2021/11/13 06:05:34;;;;;;;7.47;3.30;;;3.50;99.90;;;;;;5071798;27;20782;-57
2021/11/13 06:08:01;;;;;;;7.53;3.27;;;3.50;99.90;;;;;;5072203;28;20454;-57
2021/11/13 06:10:28;;;;;;;3.40;2.47;;;3.60;99.90;;;;;;5073609;28;20920;-56
2021/11/13 06:12:55;;;;;;;8.43;2.57;;;3.80;99.90;;;;;;5075420;28;20815;-56
2021/11/13 06:15:22;;;;;;;5.03;2.43;;;3.80;99.90;;;;;;5075554;28;20817;-56
2021/11/13 06:17:50;;;;;;;7.57;2.50;;;4.00;99.90;;;;;;5075257;28;20490;-54
2021/11/13 06:20:18;;;;;;;5.60;3.67;;;4.10;99.90;;;;;;5074537;28;20507;-55
2021/11/13 06:22:45;;;;;;;6.93;3.70;;;4.20;99.90;;;;;;5075414;28;20860;-57
2021/11/13 06:25:13;;;;;;;5.40;4.10;;;4.40;99.90;;;;;;5074026;28;20477;-57
2021/11/13 06:27:41;;;;;;;6.27;2.90;;;4.60;99.90;;;;;;5072983;28;20980;-57
2021/11/13 06:30:10;;;;;;;5.00;3.30;;;4.60;99.90;;;;;;5072942;28;20812;-57
2021/11/13 06:32:38;;;;;;;4.23;2.23;;;4.60;99.90;;;;;;5072747;28;20481;-58
2021/11/13 06:35:09;;;;;;;4.77;3.10;;;4.60;99.90;;;;;;5072833;27;20451;-58
2021/11/13 06:37:36;;;;;;;3.60;2.90;;;4.50;99.90;;;;;;5072752;28;20545;-58
2021/11/13 06:40:04;;;;;;;5.37;2.87;;;4.50;99.90;;;;;;5072510;27;20881;-59
2021/11/13 06:42:31;;;;;;;7.80;2.40;;;4.50;99.90;;;;;;5079487;28;20446;-58
2021/11/13 06:44:58;;;;;;;2.83;1.80;;;4.50;99.90;;;;;;5093856;28;20540;-58
2021/11/13 06:47:25;;;;;;;4.43;1.93;;;4.60;99.90;;;;;;5094502;28;20475;-58
2021/11/13 06:49:52;;;;;;;5.60;3.20;;;4.60;99.90;;;;;;5094317;28;20445;-58
2021/11/13 06:52:20;;;;;;;6.70;1.97;;;4.60;99.90;;;;;;5094678;28;20712;-57
2021/11/13 06:54:47;;;;;;;3.40;2.00;;;4.70;99.90;;;;;;5093759;28;20922;-57
2021/11/13 06:57:14;;;;;;;4.90;3.03;;;4.70;99.90;;;;;;5094005;28;20443;-57
2021/11/13 06:59:41;;;;;;;5.00;2.13;;;4.70;99.90;;;;;;5094239;28;20524;-57
2021/11/13 07:02:09;;;;;;;4.20;2.47;;;4.70;99.90;;;;;;5093837;28;20498;-53
2021/11/13 07:04:35;;;;;;;4.60;3.57;;;4.80;99.90;;;;;;5094313;28;20451;-54
2021/11/13 07:07:03;;;;;;;5.07;2.57;;;4.90;99.90;;;;;;5093795;28;20551;-54
2021/11/13 07:09:32;;;;;;;6.17;2.30;;;4.80;99.90;;;;;;5093739;28;20427;-55
2021/11/13 07:11:59;;;;;;;3.10;1.70;;;4.80;99.90;;;;;;5094482;28;20429;-58
2021/11/13 07:14:27;;;;;;;4.30;2.37;;;4.90;99.90;;;;;;5095221;28;20444;-58
2021/11/13 07:16:54;;;;;;;5.40;2.60;;;4.90;99.90;;;;;;5094218;28;20421;-58
2021/11/13 07:19:21;;;;;;;5.13;3.87;;;5.00;99.90;;;;;;5094970;28;20448;-58
2021/11/13 07:21:48;;;;;;;6.50;3.67;;;4.90;99.90;;;;;;5094116;28;20505;-58
2021/11/13 07:24:15;;;;;;;3.53;2.20;;;4.90;99.90;;;;;;5094485;28;20532;-58
2021/11/13 07:26:43;;;;;;;3.53;2.07;;;4.80;99.90;;;;;;5094315;28;20537;-58
2021/11/13 07:29:13;;;;;;;5.27;2.70;;;4.70;99.90;;;;;;5094404;28;20528;-59
2021/11/13 07:31:40;;;;;;;4.67;3.27;;;4.70;99.90;;;;;;5094308;28;20431;-58
2021/11/13 07:34:07;;;;;;;3.23;1.70;;;4.70;99.90;;;;;;5093472;28;20562;-64
2021/11/13 07:36:34;;;;;;;4.30;3.50;;;4.70;99.90;;;;;;5093818;28;20861;-64
2021/11/13 07:39:01;;;;;;;6.13;3.13;;;4.70;99.90;;;;;;5083372;28;20512;-57
2021/11/13 07:41:28;;;;;;;3.23;2.00;;;4.70;99.90;;;;;;5073296;27;20747;-55
2021/11/13 07:43:56;;;;;;;3.97;2.27;;;4.80;99.90;;;;;;5073555;28;20476;-49
2021/11/13 07:46:23;;;;;;;4.90;1.60;;;4.90;99.90;;;;;;5073468;27;20542;-56
2021/11/13 07:48:50;;;;;;;5.23;2.73;;;5.00;99.90;;;;;;5073729;28;20452;-52
2021/11/13 07:51:20;;;;;;;3.60;2.33;;;5.10;99.90;;;;;;5072713;27;20836;-52
2021/11/13 07:53:48;;;;;;;4.67;1.93;;;5.10;99.90;;;;;;5072404;28;20522;-55
2021/11/13 07:56:15;;;;;;;3.57;1.70;;;5.10;99.90;;;;;;5071721;28;20522;-56
2021/11/13 07:58:42;;;;;;;5.60;2.70;;;5.20;99.90;;;;;;5070969;28;20457;-58
2021/11/13 08:01:11;;;;;;;5.07;2.60;;;5.20;99.90;;;;;;5072246;27;20479;-52
2021/11/13 08:03:37;;;;;;;3.50;1.53;;;5.30;99.90;;;;;;5071907;28;20568;-59
2021/11/13 08:06:05;;;;;;;3.40;2.03;;;5.30;99.90;;;;;;5071137;27;20798;-58
2021/11/13 08:08:32;;;;;;;3.00;1.90;;;5.40;99.90;;;;;;5070549;28;20453;-58
2021/11/13 08:11:01;;;;;;;3.43;2.20;;;5.50;99.90;;;;;;5070150;27;20474;-58
2021/11/13 08:13:28;;;;;;;6.03;3.70;;;5.50;99.90;;;;;;5069341;27;20437;-58
2021/11/13 08:15:55;;;;;;;4.30;2.80;;;5.50;99.90;;;;;;5071090;27;20250;-58
2021/11/13 08:18:24;;;;;;;5.40;2.33;;;5.60;99.90;;;;;;5072134;28;20505;-58
2021/11/13 08:20:51;;;;;;;3.57;1.67;;;5.70;99.90;;;;;;5071635;27;20530;-58
2021/11/13 08:23:18;;;;;;;5.47;2.00;;;5.70;99.90;;;;;;5070002;28;20509;-59
2021/11/13 08:25:48;;;;;;;2.83;1.80;;;5.80;99.90;;;;;;5071929;28;20519;-58
2021/11/13 08:28:15;;;;;;;3.03;2.03;;;5.80;99.90;;;;;;5071246;27;20429;-58
2021/11/13 08:30:42;;;;;;;2.83;1.63;;;5.90;99.90;;;;;;5070203;28;20466;-58
2021/11/13 08:33:10;;;;;;;6.73;1.63;;;6.00;99.90;;;;;;5071046;28;20811;-58
2021/11/13 08:35:41;;;;;;;2.10;1.33;;;6.10;99.90;;;;;;5070438;28;20529;-58
2021/11/13 08:38:08;;;;;;;4.03;2.13;;;6.20;99.90;;;;;;5069952;28;20529;-57
2021/11/13 08:40:35;;;;;;;2.10;1.40;;;6.30;99.90;;;;;;5069617;27;20478;-58
2021/11/13 08:43:03;;;;;;;3.40;1.70;;;6.30;99.90;;;;;;5066662;28;20447;-58
2021/11/13 08:45:34;;;;;;;4.30;2.00;;;6.30;99.90;;;;;;5064089;28;20443;-61
2021/11/13 08:48:01;;;;;;;5.55;3.45;;;6.30;99.90;;;;;;5069310;28;20893;-61
2021/11/13 08:50:35;;;;;;;4.80;3.77;;;6.30;99.90;;;;;;5070683;27;20498;-61
2021/11/13 08:53:06;;;;;;;5.70;4.03;;;6.30;99.90;;;;;;5060909;27;20428;-60
2021/11/13 08:55:36;;;;;;;4.70;3.63;;;6.30;99.90;;;;;;5068959;27;20412;-61
2021/11/13 08:58:05;;;;;;;5.07;3.60;;;6.30;99.90;;;;;;5064876;28;20493;-62
2021/11/13 09:00:35;;;;;;;5.90;4.05;;;6.30;99.90;;;;;;5067284;28;20476;-61
2021/11/13 09:03:04;;;;;;;5.97;4.28;;;6.30;99.90;;;;;;5068187;28;20514;-61
2021/11/13 09:05:32;;;;;;;5.15;3.72;;;6.30;99.90;;;;;;5069289;28;20791;-62
2021/11/13 09:08:01;;;;;;;4.10;2.70;;;6.40;99.90;;;;;;5069434;28;20847;-62
2021/11/13 09:10:31;;;;;;;4.37;2.40;;;6.40;99.90;;;;;;5070011;28;20483;-63
2021/11/13 09:12:59;;;;;;;3.57;2.43;;;6.60;99.90;;;;;;5069827;28;20752;-62
2021/11/13 09:15:29;;;;;;;3.17;2.28;;;6.70;99.90;;;;;;5068764;27;20440;-63
2021/11/13 09:17:57;;;;;;;4.18;2.40;;;6.80;99.90;;;;;;5068443;27;20996;-62
2021/11/13 09:20:26;;;;;;;3.38;1.90;;;6.90;99.90;;;;;;5067953;27;20427;-64
2021/11/13 09:22:53;;;;;;;3.53;2.10;;;7.10;99.90;;;;;;5067895;28;20431;-62
2021/11/13 09:25:20;;;;;;;2.55;1.75;;;7.20;99.90;;;;;;5068660;28;20722;-62
2021/11/13 09:27:49;;;;;;;3.90;1.70;;;7.30;99.90;;;;;;5068043;28;20488;-62
2021/11/13 09:30:21;;;;;;;3.53;2.00;;;7.50;99.90;;;;;;5068448;28;20447;-62
2021/11/13 09:32:49;;;;;;;2.90;1.90;;;7.70;99.90;;;;;;5068774;28;20423;-63
2021/11/13 09:35:17;;;;;;;2.38;1.50;;;7.90;99.90;;;;;;5068717;28;20728;-63
2021/11/13 09:37:46;;;;;;;3.30;1.70;;;8.00;99.90;;;;;;5067858;28;20523;-62
2021/11/13 09:40:16;;;;;;;3.58;1.92;;;8.10;99.90;;;;;;5069747;27;20419;-61
2021/11/13 09:42:44;;;;;;;3.22;1.50;;;8.20;99.90;;;;;;5069764;28;20482;-62
2021/11/13 09:45:13;;;;;;;2.30;1.40;;;8.40;99.90;;;;;;5070069;28;20416;-61
2021/11/13 09:47:42;;;;;;;1.73;1.20;;;8.50;99.90;;;;;;5072200;28;20523;-61
2021/11/13 09:50:10;;;;;;;2.78;1.35;;;8.60;99.90;;;;;;5070274;28;20869;-63
2021/11/13 09:52:39;;;;;;;2.73;1.40;;;8.70;99.90;;;;;;5071291;27;20506;-63
2021/11/13 09:55:08;;;;;;;2.15;1.20;;;8.80;99.90;;;;;;5070987;28;20492;-62
2021/11/13 09:57:37;;;;;;;2.13;1.20;;;8.90;99.90;;;;;;5072273;28;20510;-63
2021/11/13 10:00:06;;;;;;;2.00;1.38;;;9.00;99.90;;;;;;5073119;27;20428;-62
2021/11/13 10:02:34;;;;;;;2.38;1.20;;;9.10;99.90;;;;;;5071144;28;20432;-62
2021/11/13 10:05:01;;;;;;;5.20;1.50;;;9.00;99.90;;;;;;5071017;27;20419;-63
2021/11/13 10:07:30;;;;;;;2.30;1.50;;;8.90;99.90;;;;;;5072852;27;20443;-58
2021/11/13 10:09:57;;;;;;;2.08;1.42;;;8.80;99.90;;;;;;5071342;27;20764;-58
2021/11/13 10:12:34;;;;;;;2.30;1.50;;;8.80;99.90;;;;;;5072059;28;20428;-57
2021/11/13 10:15:01;;;;;;;2.50;1.50;;;8.80;99.90;;;;;;5070093;28;20423;-60
2021/11/13 10:17:33;;;;;;;3.25;1.30;;;8.80;99.90;;;;;;5071290;27;20754;-60
2021/11/13 10:20:23;;;;;;;2.33;1.40;;;9.00;99.90;;;;;;5070801;28;20419;-59
2021/11/13 10:22:50;;;;;;;1.70;1.20;;;9.10;99.90;;;;;;5072649;27;20434;-58
2021/11/13 10:25:18;;;;;;;2.08;1.20;;;9.20;99.90;;;;;;5073095;27;20802;-59
2021/11/13 10:28:06;;;;;;;1.60;1.00;;;9.40;99.90;;;;;;5072468;28;20526;-59
2021/11/13 10:30:33;;;;;;;1.70;1.10;;;9.60;99.90;;;;;;5067486;27;20420;-58
2021/11/13 10:33:00;;;;;;;2.10;1.10;;;9.70;99.90;;;;;;5072067;28;20427;-57
2021/11/13 10:35:45;;;;;;;1.50;1.10;;;9.90;99.90;;;;;;5072494;28;20451;-59
2021/11/13 10:38:15;;;;;;;1.70;1.00;;;9.90;99.90;;;;;;5070797;28;20839;-57
2021/11/13 10:40:54;;;;;;;2.08;1.10;;;9.90;99.90;;;;;;5068064;28;20482;-58
2021/11/13 10:43:31;;;;;;;2.40;1.30;;;9.90;99.90;;;;;;5069702;28;20444;-57
2021/11/13 10:46:00;;;;;;;3.20;1.10;;;9.80;99.90;;;;;;5073823;27;20454;-56
2021/11/13 10:48:27;;;;;;;1.50;1.10;;;9.80;99.90;;;;;;5072233;27;20792;-57
2021/11/13 10:51:05;;;;;;;1.50;1.00;;;9.80;99.90;;;;;;5070061;28;20506;-58
2021/11/13 10:53:33;;;;;;;2.30;1.00;;;9.90;99.90;;;;;;5069887;28;20436;-57
2021/11/13 10:56:13;;;;;;;2.80;1.10;;;9.90;99.90;;;;;;5070719;27;20427;-58
2021/11/13 10:58:43;;;;;;;1.50;1.10;;;9.90;99.90;;;;;;5084944;27;20435;-59
2021/11/13 11:01:14;;;;;;;1.70;1.10;;;9.90;99.90;;;;;;5068103;28;20891;-58
2021/11/13 11:03:54;;;;;;;3.00;1.10;;;9.90;99.90;;;;;;5068762;27;20747;-58
2021/11/13 11:06:29;;;;;;;2.10;1.70;;;9.90;99.90;;;;;;5073698;28;20447;-58
2021/11/13 11:08:56;;;;;;;3.97;3.27;;;10.00;99.90;;;;;;5068246;27;20496;-60
2021/11/13 11:11:30;;;;;;;6.33;5.37;;;10.10;99.90;;;;;;5065609;28;20805;-58
2021/11/13 11:14:00;;;;;;;7.03;5.00;;;9.80;99.90;;;;;;5063628;27;20435;-58
2021/11/13 11:16:30;;;;;;;7.70;5.78;;;9.60;99.90;;;;;;5064637;28;20568;-60
2021/11/13 11:18:59;;;;;;;5.97;4.70;;;9.30;99.90;;;;;;5070323;28;20420;-60
2021/11/13 11:21:47;;;;;;;7.78;5.22;;;9.30;99.90;;;;;;5069006;28;20487;-59
2021/11/13 11:24:16;;;;;;;5.15;4.63;;;9.20;99.90;;;;;;5065526;28;20416;-57
2021/11/13 11:26:46;;;;;;;4.65;4.20;;;9.40;99.90;;;;;;5069452;28;20899;-58
2021/11/13 11:29:13;;;;;;;5.70;5.10;;;9.80;99.90;;;;;;5066213;28;20424;-59
2021/11/13 11:31:46;;;;;;;7.20;6.20;;;10.10;99.90;;;;;;5070508;27;20922;-58
2021/11/13 11:34:25;;;;;;;8.18;6.32;;;10.00;99.90;;;;;;5070766;28;20503;-58
2021/11/13 11:36:57;;;;;;;6.82;6.13;;;9.60;99.90;;;;;;5068473;28;20768;-59
2021/11/13 11:39:25;;;;;;;5.30;4.78;;;9.30;99.90;;;;;;5069887;28;20535;-59
2021/11/13 11:41:53;;;;;;;8.77;5.95;;;9.30;99.90;;;;;;5065976;28;20800;-59
2021/11/13 11:44:20;;;;;;;6.85;6.15;;;9.30;99.90;;;;;;5069728;28;20472;-59
2021/11/13 11:46:49;;;;;;;8.77;6.88;;;9.00;99.90;;;;;;5067362;27;20420;-58
2021/11/13 11:49:17;;;;;;;7.55;6.72;;;8.90;99.90;;;;;;5069723;27;20522;-59
2021/11/13 11:51:46;;;;;;;7.80;6.40;;;8.90;99.90;;;;;;5069371;27;20898;-60
2021/11/13 11:54:17;;;;;;;6.13;5.22;;;8.80;99.90;;;;;;5067702;28;20480;-59
2021/11/13 11:56:45;;;;;;;5.40;4.88;;;9.00;99.90;;;;;;5069512;27;20434;-60
2021/11/13 11:59:12;;;;;;;7.72;6.93;;;9.10;99.90;;;;;;5066938;27;20903;-60
2021/11/13 12:01:42;;;;;;;6.90;6.20;;;9.20;99.90;;;;;;5069965;27;20475;-60
2021/11/13 12:04:15;;;;;;;7.50;4.57;;;9.20;99.90;;;;;;5087172;27;20512;-60
2021/11/13 12:06:46;;;;;;;6.43;5.03;;;9.30;99.90;;;;;;5082596;27;20999;-55
2021/11/13 12:09:15;;;;;;;6.22;5.63;;;9.40;99.90;;;;;;5066697;28;20488;-60
2021/11/13 12:11:43;;;;;;;6.45;5.20;;;9.40;99.90;;;;;;5066817;28;20915;-57
2021/11/13 12:14:36;;;;;;;6.53;5.60;;;9.40;99.90;;;;;;5067435;27;20814;-58
2021/11/13 12:17:26;;;;;;;7.30;6.40;;;9.30;99.90;;;;;;5066547;28;20885;-59
2021/11/13 12:20:30;;;;;;;6.70;5.80;;;9.20;99.90;;;;;;5067988;27;20428;-58
2021/11/13 12:23:04;;;;;;;5.93;5.32;;;9.10;99.90;;;;;;5065615;28;20499;-59
2021/11/13 12:25:34;;;;;;;8.63;6.30;;;9.40;99.90;;;;;;5064340;28;20855;-59
2021/11/13 12:28:18;;;;;;;7.75;6.07;;;9.50;99.90;;;;;;5068433;28;20526;-60
2021/11/13 12:30:57;;;;;;;8.18;6.15;;;9.70;99.90;;;;;;5070392;28;20431;-59
2021/11/13 12:33:48;;;;;;;6.63;5.85;;;9.80;99.90;;;;;;5071015;28;20486;-59
2021/11/13 12:36:19;;;;;;;8.68;6.93;;;9.80;99.90;;;;;;5065796;28;20456;-59
2021/11/13 12:38:53;;;;;;;6.18;5.45;;;9.60;99.90;;;;;;5067831;28;20810;-59
2021/11/13 12:41:25;;;;;;;6.95;6.35;;;9.50;99.90;;;;;;5069585;28;20424;-59
2021/11/13 12:44:20;;;;;;;8.15;6.20;;;9.60;99.90;;;;;;5067370;28;20419;-59
2021/11/13 12:46:48;;;;;;;7.70;6.35;;;9.90;99.90;;;;;;5044732;27;20447;-58
2021/11/13 12:49:47;;;;;;;7.97;7.13;;;10.00;99.90;;;;;;5070102;27;20424;-58
2021/11/13 12:52:33;;;;;;;8.60;7.80;;;9.90;99.90;;;;;;5069853;28;20424;-58
2021/11/13 12:55:18;;;;;;;7.00;6.30;;;9.70;99.90;;;;;;5068445;28;20507;-59
2021/11/13 12:57:58;;;;;;;7.55;6.80;;;9.70;99.90;;;;;;5069435;28;20503;-59
2021/11/13 13:00:27;;;;;;;9.07;7.25;;;9.80;99.90;;;;;;5069674;27;20515;-59
2021/11/13 13:02:55;;;;;;;7.10;6.40;;;9.70;99.90;;;;;;5068264;28;20524;-59
2021/11/13 13:05:23;;;;;;;8.90;6.60;;;9.50;99.90;;;;;;5066310;27;20897;-59